KSDL

Details ICAO KSDL (ZSY)
Name SCOTTSDALE
Region United States
Timezone America/Phoenix (UTC-7.0)
Plans Departing 76
Arriving 58
Stats Elevation 1,510 ft / 460 m (AMSL)
Location 33.622881° -111.910535°
Runways 1
Magnetic Variation 10.313° E
Sunrise 2017-12-13 14:25:03 UTC / 2017-12-13 07:25:03 Local
Sunset 2017-12-14 00:21:46 UTC / 2017-12-13 17:21:46 Local
Advertisement - Login to hide

Runways

ID Width Length Bearing (true) Bearing (mag) Surface Threshold Offset Overrun Length
03 100 ft / 30 m 8,253 ft / 2,516 m 43.82° 33.51° Asphalt 740 ft / 226 m 0 ft / 0 m
21 100 ft / 30 m 8,253 ft / 2,516 m 223.83° 213.52° Asphalt 400 ft / 122 m 0 ft / 0 m

Map

Weather


0- 5 10 15 20 25 30 35+ Temperature / ° C

Clouds and Precipitation
Forecast for 2017-12-13 12:00 UTC. Updated 9 minutes ago

Ground ~20,000 ft ~40,000 ft Winds

METAR

KSDL 131053Z 00000KT 10SM CLR 10/M09 A3006 RMK AO2 SLP165 T01001094

TAF

KSDL 130520Z 1306/1406 VRB03KT P6SM SCT250 FM132100 22004KT P6SM FEW250 FM140100 VRB03KT P6SM FEW250

Frequencies

Recorded 118.60 MHz ATIS
Clearance 124.80 MHz CLNC DEL
Tower 119.90 MHz TWR
Unicom 119.90 MHz CTAF
Ground 121.60 MHz GND
Approach 120.70 MHz PHOENIX APP/DEP
Warning: Do not use this data for real-world aviation or navigation. No guarantee of current accuracy is given.